sensor_id;sensor_type;location;lat;lon;timestamp;pressure;altitude;pressure_sealevel;temperature;humidity
77778;BME280;66966;-34.746;138.604;2023-07-29T00:02:13;102151.04;;;13.05;50.80
77778;BME280;66966;-34.746;138.604;2023-07-29T00:04:39;102150.86;;;13.00;50.94
77778;BME280;66966;-34.746;138.604;2023-07-29T00:07:05;102150.82;;;13.72;50.86
77778;BME280;66966;-34.746;138.604;2023-07-29T00:09:31;102152.67;;;13.68;50.02
77778;BME280;66966;-34.746;138.604;2023-07-29T00:11:56;102154.96;;;13.62;49.93
77778;BME280;66966;-34.746;138.604;2023-07-29T00:14:22;102157.11;;;13.98;50.10
77778;BME280;66966;-34.746;138.604;2023-07-29T00:16:48;102155.75;;;13.91;49.54
77778;BME280;66966;-34.746;138.604;2023-07-29T00:19:13;102161.59;;;14.31;49.27
77778;BME280;66966;-34.746;138.604;2023-07-29T00:21:39;102165.70;;;14.18;48.82
77778;BME280;66966;-34.746;138.604;2023-07-29T00:24:05;102162.94;;;14.18;48.48
77778;BME280;66966;-34.746;138.604;2023-07-29T00:26:30;102165.86;;;13.95;47.96
77778;BME280;66966;-34.746;138.604;2023-07-29T00:28:56;102166.38;;;14.01;48.18
77778;BME280;66966;-34.746;138.604;2023-07-29T00:31:21;102169.98;;;14.36;48.55
77778;BME280;66966;-34.746;138.604;2023-07-29T00:33:47;102171.51;;;14.15;48.35
77778;BME280;66966;-34.746;138.604;2023-07-29T00:36:13;102173.11;;;14.48;48.55
77778;BME280;66966;-34.746;138.604;2023-07-29T00:38:42;102164.40;;;14.42;48.31
77778;BME280;66966;-34.746;138.604;2023-07-29T00:41:04;102159.79;;;14.19;48.34
77778;BME280;66966;-34.746;138.604;2023-07-29T00:43:30;102159.78;;;14.16;48.24
77778;BME280;66966;-34.746;138.604;2023-07-29T00:45:56;102160.17;;;14.72;48.05
77778;BME280;66966;-34.746;138.604;2023-07-29T00:48:21;102158.21;;;14.85;47.89
77778;BME280;66966;-34.746;138.604;2023-07-29T00:50:47;102153.65;;;14.80;47.99
77778;BME280;66966;-34.746;138.604;2023-07-29T00:53:13;102156.22;;;14.75;47.49
77778;BME280;66966;-34.746;138.604;2023-07-29T00:55:39;102156.83;;;14.81;47.55
77778;BME280;66966;-34.746;138.604;2023-07-29T00:58:05;102159.64;;;14.62;47.53
77778;BME280;66966;-34.746;138.604;2023-07-29T01:00:30;102157.15;;;14.33;47.43
77778;BME280;66966;-34.746;138.604;2023-07-29T01:02:56;102156.61;;;14.75;47.15
77778;BME280;66966;-34.746;138.604;2023-07-29T01:05:21;102160.56;;;14.85;47.18
77778;BME280;66966;-34.746;138.604;2023-07-29T01:07:55;102154.91;;;14.79;47.39
77778;BME280;66966;-34.746;138.604;2023-07-29T01:10:21;102145.58;;;14.66;47.23
77778;BME280;66966;-34.746;138.604;2023-07-29T01:12:50;102146.79;;;15.19;46.46
77778;BME280;66966;-34.746;138.604;2023-07-29T01:15:15;102147.06;;;14.95;46.71
77778;BME280;66966;-34.746;138.604;2023-07-29T01:17:36;102143.48;;;15.10;46.48
77778;BME280;66966;-34.746;138.604;2023-07-29T01:20:03;102142.52;;;15.39;46.32
77778;BME280;66966;-34.746;138.604;2023-07-29T01:22:22;102143.06;;;15.32;46.43
77778;BME280;66966;-34.746;138.604;2023-07-29T01:24:47;102145.53;;;15.46;46.26
77778;BME280;66966;-34.746;138.604;2023-07-29T01:27:12;102135.15;;;15.58;45.40
77778;BME280;66966;-34.746;138.604;2023-07-29T01:29:38;102129.80;;;15.68;45.05
77778;BME280;66966;-34.746;138.604;2023-07-29T01:32:09;102130.57;;;15.72;44.87
77778;BME280;66966;-34.746;138.604;2023-07-29T01:34:32;102128.17;;;15.07;44.79
77778;BME280;66966;-34.746;138.604;2023-07-29T01:36:55;102123.73;;;15.89;44.68
77778;BME280;66966;-34.746;138.604;2023-07-29T01:39:22;102121.02;;;15.89;44.68
77778;BME280;66966;-34.746;138.604;2023-07-29T01:41:47;102119.00;;;15.84;44.98
77778;BME280;66966;-34.746;138.604;2023-07-29T01:44:13;102117.00;;;15.96;44.77
77778;BME280;66966;-34.746;138.604;2023-07-29T01:46:38;102113.70;;;15.81;44.78
77778;BME280;66966;-34.746;138.604;2023-07-29T01:49:03;102114.32;;;16.48;44.49
77778;BME280;66966;-34.746;138.604;2023-07-29T01:51:29;102111.08;;;16.06;44.82
77778;BME280;66966;-34.746;138.604;2023-07-29T01:53:54;102108.44;;;16.74;44.21
77778;BME280;66966;-34.746;138.604;2023-07-29T01:56:20;102107.28;;;16.22;43.21
77778;BME280;66966;-34.746;138.604;2023-07-29T01:58:46;102100.16;;;16.15;42.55
77778;BME280;66966;-34.746;138.604;2023-07-29T02:01:11;102101.47;;;16.06;42.29
77778;BME280;66966;-34.746;138.604;2023-07-29T02:03:37;102087.14;;;15.77;42.18
77778;BME280;66966;-34.746;138.604;2023-07-29T02:06:02;102084.08;;;16.41;42.28
77778;BME280;66966;-34.746;138.604;2023-07-29T02:08:28;102073.91;;;16.39;42.04
77778;BME280;66966;-34.746;138.604;2023-07-29T02:10:54;102073.90;;;16.78;41.61
77778;BME280;66966;-34.746;138.604;2023-07-29T02:13:19;102072.31;;;16.70;40.68
77778;BME280;66966;-34.746;138.604;2023-07-29T02:15:44;102068.52;;;16.65;41.00
77778;BME280;66966;-34.746;138.604;2023-07-29T02:18:11;102061.27;;;16.95;40.47
77778;BME280;66966;-34.746;138.604;2023-07-29T02:20:36;102058.70;;;17.13;40.73
77778;BME280;66966;-34.746;138.604;2023-07-29T02:23:02;102057.05;;;16.89;39.83
77778;BME280;66966;-34.746;138.604;2023-07-29T02:25:28;102056.11;;;17.18;39.88
77778;BME280;66966;-34.746;138.604;2023-07-29T02:27:52;102053.88;;;17.39;39.64
77778;BME280;66966;-34.746;138.604;2023-07-29T02:30:18;102048.07;;;17.31;39.33
77778;BME280;66966;-34.746;138.604;2023-07-29T02:32:44;102044.46;;;17.23;38.47
77778;BME280;66966;-34.746;138.604;2023-07-29T02:35:09;102039.65;;;17.11;38.02
77778;BME280;66966;-34.746;138.604;2023-07-29T02:37:35;102037.45;;;16.79;38.41
77778;BME280;66966;-34.746;138.604;2023-07-29T02:40:01;102032.54;;;17.18;38.40
77778;BME280;66966;-34.746;138.604;2023-07-29T02:42:26;102025.35;;;16.99;38.36
77778;BME280;66966;-34.746;138.604;2023-07-29T02:44:51;102025.69;;;17.11;37.85
77778;BME280;66966;-34.746;138.604;2023-07-29T02:47:17;102023.60;;;16.82;37.95
77778;BME280;66966;-34.746;138.604;2023-07-29T02:49:42;102021.47;;;16.91;38.01
77778;BME280;66966;-34.746;138.604;2023-07-29T02:52:08;102021.65;;;17.00;37.83
77778;BME280;66966;-34.746;138.604;2023-07-29T02:54:33;102021.53;;;16.59;37.87
77778;BME280;66966;-34.746;138.604;2023-07-29T02:56:59;102011.22;;;17.00;37.29
77778;BME280;66966;-34.746;138.604;2023-07-29T02:59:25;102008.53;;;17.12;37.13
77778;BME280;66966;-34.746;138.604;2023-07-29T03:01:50;102001.08;;;16.87;37.21
77778;BME280;66966;-34.746;138.604;2023-07-29T03:04:16;101995.95;;;16.94;37.80
77778;BME280;66966;-34.746;138.604;2023-07-29T03:06:41;101992.64;;;17.08;36.92
77778;BME280;66966;-34.746;138.604;2023-07-29T03:09:07;101988.88;;;17.11;36.96
77778;BME280;66966;-34.746;138.604;2023-07-29T03:11:33;101987.04;;;16.83;36.48
77778;BME280;66966;-34.746;138.604;2023-07-29T03:13:58;101982.58;;;17.21;37.18
77778;BME280;66966;-34.746;138.604;2023-07-29T03:16:24;101981.89;;;17.06;37.34
77778;BME280;66966;-34.746;138.604;2023-07-29T03:18:49;101982.21;;;16.84;36.85
77778;BME280;66966;-34.746;138.604;2023-07-29T03:21:15;101979.18;;;17.65;37.71
77778;BME280;66966;-34.746;138.604;2023-07-29T03:23:41;101975.75;;;17.36;37.39
77778;BME280;66966;-34.746;138.604;2023-07-29T03:26:06;101971.96;;;17.88;37.33
77778;BME280;66966;-34.746;138.604;2023-07-29T03:28:33;101965.35;;;17.88;36.44
77778;BME280;66966;-34.746;138.604;2023-07-29T03:30:57;101961.46;;;17.89;36.32
77778;BME280;66966;-34.746;138.604;2023-07-29T03:33:23;101959.13;;;17.74;35.59
77778;BME280;66966;-34.746;138.604;2023-07-29T03:35:48;101953.81;;;17.59;36.03
77778;BME280;66966;-34.746;138.604;2023-07-29T03:38:13;101956.01;;;17.65;35.65
77778;BME280;66966;-34.746;138.604;2023-07-29T03:40:39;101955.03;;;17.63;36.11
77778;BME280;66966;-34.746;138.604;2023-07-29T03:43:04;101949.09;;;17.62;35.88
77778;BME280;66966;-34.746;138.604;2023-07-29T03:45:30;101957.43;;;16.93;35.96
77778;BME280;66966;-34.746;138.604;2023-07-29T03:47:56;101955.00;;;17.46;35.99
77778;BME280;66966;-34.746;138.604;2023-07-29T03:50:21;101950.94;;;17.68;35.34
77778;BME280;66966;-34.746;138.604;2023-07-29T03:52:47;101947.92;;;17.35;35.76
77778;BME280;66966;-34.746;138.604;2023-07-29T03:55:12;101939.97;;;17.20;35.85
77778;BME280;66966;-34.746;138.604;2023-07-29T03:57:38;101936.14;;;17.34;36.06
77778;BME280;66966;-34.746;138.604;2023-07-29T04:00:04;101932.89;;;17.43;35.95
77778;BME280;66966;-34.746;138.604;2023-07-29T04:02:29;101929.16;;;17.26;35.63
77778;BME280;66966;-34.746;138.604;2023-07-29T04:04:54;101931.86;;;17.40;36.00
77778;BME280;66966;-34.746;138.604;2023-07-29T04:07:20;101926.41;;;17.61;35.49
77778;BME280;66966;-34.746;138.604;2023-07-29T04:09:45;101923.52;;;17.66;35.47
77778;BME280;66966;-34.746;138.604;2023-07-29T04:12:11;101918.05;;;17.86;34.72
77778;BME280;66966;-34.746;138.604;2023-07-29T04:14:36;101915.98;;;18.11;33.66
77778;BME280;66966;-34.746;138.604;2023-07-29T04:17:02;101911.77;;;18.14;33.54
77778;BME280;66966;-34.746;138.604;2023-07-29T04:19:28;101910.50;;;18.24;32.96
77778;BME280;66966;-34.746;138.604;2023-07-29T04:21:53;101910.76;;;17.86;33.43
77778;BME280;66966;-34.746;138.604;2023-07-29T04:24:19;101902.11;;;18.43;32.87
77778;BME280;66966;-34.746;138.604;2023-07-29T04:26:44;101901.88;;;17.87;32.84
77778;BME280;66966;-34.746;138.604;2023-07-29T04:29:09;101897.11;;;18.58;32.38
77778;BME280;66966;-34.746;138.604;2023-07-29T04:31:35;101896.61;;;18.22;32.65
77778;BME280;66966;-34.746;138.604;2023-07-29T04:34:00;101896.83;;;18.08;32.43
77778;BME280;66966;-34.746;138.604;2023-07-29T04:36:26;101895.93;;;18.31;32.57
77778;BME280;66966;-34.746;138.604;2023-07-29T04:38:51;101888.26;;;18.09;32.70
77778;BME280;66966;-34.746;138.604;2023-07-29T04:41:17;101892.91;;;18.53;31.96
77778;BME280;66966;-34.746;138.604;2023-07-29T04:43:42;101895.15;;;18.35;32.33
77778;BME280;66966;-34.746;138.604;2023-07-29T04:46:08;101898.17;;;18.42;31.87
77778;BME280;66966;-34.746;138.604;2023-07-29T04:48:34;101887.72;;;18.44;31.64
77778;BME280;66966;-34.746;138.604;2023-07-29T04:50:59;101886.81;;;18.91;31.33
77778;BME280;66966;-34.746;138.604;2023-07-29T04:53:25;101887.03;;;18.99;31.48
77778;BME280;66966;-34.746;138.604;2023-07-29T04:55:50;101886.51;;;18.41;31.23
77778;BME280;66966;-34.746;138.604;2023-07-29T04:58:15;101887.58;;;18.72;30.75
77778;BME280;66966;-34.746;138.604;2023-07-29T05:00:41;101885.87;;;18.81;30.19
77778;BME280;66966;-34.746;138.604;2023-07-29T05:03:06;101886.42;;;18.69;29.68
77778;BME280;66966;-34.746;138.604;2023-07-29T05:05:32;101888.14;;;18.75;30.57
77778;BME280;66966;-34.746;138.604;2023-07-29T05:07:57;101892.89;;;18.74;30.36
77778;BME280;66966;-34.746;138.604;2023-07-29T05:10:23;101886.10;;;18.91;30.04
77778;BME280;66966;-34.746;138.604;2023-07-29T05:12:49;101890.51;;;18.75;30.60
77778;BME280;66966;-34.746;138.604;2023-07-29T05:15:14;101892.64;;;19.18;31.08
77778;BME280;66966;-34.746;138.604;2023-07-29T05:17:39;101888.41;;;19.13;30.40
77778;BME280;66966;-34.746;138.604;2023-07-29T05:20:06;101882.66;;;19.12;29.99
77778;BME280;66966;-34.746;138.604;2023-07-29T05:22:30;101884.20;;;18.71;29.63
77778;BME280;66966;-34.746;138.604;2023-07-29T05:24:56;101884.04;;;19.30;29.87
77778;BME280;66966;-34.746;138.604;2023-07-29T05:27:21;101880.10;;;19.07;28.95
77778;BME280;66966;-34.746;138.604;2023-07-29T05:29:47;101882.89;;;19.33;29.43
77778;BME280;66966;-34.746;138.604;2023-07-29T05:32:12;101884.98;;;18.88;29.63
77778;BME280;66966;-34.746;138.604;2023-07-29T05:34:38;101885.31;;;18.91;29.79
77778;BME280;66966;-34.746;138.604;2023-07-29T05:37:04;101886.56;;;18.81;29.69
77778;BME280;66966;-34.746;138.604;2023-07-29T05:39:30;101879.62;;;19.09;29.00
77778;BME280;66966;-34.746;138.604;2023-07-29T05:41:54;101881.61;;;18.95;28.75
77778;BME280;66966;-34.746;138.604;2023-07-29T05:44:19;101881.25;;;19.39;28.29
77778;BME280;66966;-34.746;138.604;2023-07-29T05:46:45;101887.34;;;18.86;28.74
77778;BME280;66966;-34.746;138.604;2023-07-29T05:49:11;101897.25;;;19.44;28.79
77778;BME280;66966;-34.746;138.604;2023-07-29T05:51:36;101899.65;;;19.41;28.23
77778;BME280;66966;-34.746;138.604;2023-07-29T05:54:01;101906.08;;;19.39;28.01
77778;BME280;66966;-34.746;138.604;2023-07-29T05:56:27;101901.38;;;19.29;28.15
77778;BME280;66966;-34.746;138.604;2023-07-29T05:58:52;101894.81;;;19.20;27.91
77778;BME280;66966;-34.746;138.604;2023-07-29T06:01:19;101899.11;;;18.89;27.88
77778;BME280;66966;-34.746;138.604;2023-07-29T06:03:43;101895.54;;;19.01;27.72
77778;BME280;66966;-34.746;138.604;2023-07-29T06:06:09;101898.73;;;19.06;27.71
77778;BME280;66966;-34.746;138.604;2023-07-29T06:08:34;101890.01;;;18.82;27.94
77778;BME280;66966;-34.746;138.604;2023-07-29T06:11:00;101895.02;;;18.91;28.07
77778;BME280;66966;-34.746;138.604;2023-07-29T06:13:26;101896.38;;;19.05;28.32
77778;BME280;66966;-34.746;138.604;2023-07-29T06:15:51;101894.75;;;18.96;28.12
77778;BME280;66966;-34.746;138.604;2023-07-29T06:18:16;101888.67;;;18.80;27.88
77778;BME280;66966;-34.746;138.604;2023-07-29T06:20:42;101888.30;;;19.07;28.20
77778;BME280;66966;-34.746;138.604;2023-07-29T06:23:08;101884.79;;;19.09;27.49
77778;BME280;66966;-34.746;138.604;2023-07-29T06:25:33;101895.02;;;18.64;27.80
77778;BME280;66966;-34.746;138.604;2023-07-29T06:27:58;101899.19;;;18.79;27.99
77778;BME280;66966;-34.746;138.604;2023-07-29T06:30:23;101895.74;;;18.85;27.71
77778;BME280;66966;-34.746;138.604;2023-07-29T06:32:49;101893.61;;;18.80;27.91
77778;BME280;66966;-34.746;138.604;2023-07-29T06:35:14;101894.67;;;18.90;27.87
77778;BME280;66966;-34.746;138.604;2023-07-29T06:37:40;101897.97;;;18.66;28.06
77778;BME280;66966;-34.746;138.604;2023-07-29T06:40:06;101895.18;;;18.78;28.31
77778;BME280;66966;-34.746;138.604;2023-07-29T06:42:31;101895.23;;;18.50;28.35
77778;BME280;66966;-34.746;138.604;2023-07-29T06:44:56;101899.30;;;18.57;27.94
77778;BME280;66966;-34.746;138.604;2023-07-29T06:47:22;101905.37;;;18.45;28.35
77778;BME280;66966;-34.746;138.604;2023-07-29T06:49:48;101894.76;;;18.38;28.30
77778;BME280;66966;-34.746;138.604;2023-07-29T06:52:13;101892.10;;;18.44;28.46
77778;BME280;66966;-34.746;138.604;2023-07-29T06:54:38;101898.78;;;18.31;28.40
77778;BME280;66966;-34.746;138.604;2023-07-29T06:57:04;101903.78;;;18.54;28.72
77778;BME280;66966;-34.746;138.604;2023-07-29T06:59:29;101902.20;;;17.77;28.62
77778;BME280;66966;-34.746;138.604;2023-07-29T07:01:55;101901.85;;;18.51;28.66
77778;BME280;66966;-34.746;138.604;2023-07-29T07:04:20;101899.26;;;18.27;28.65
77778;BME280;66966;-34.746;138.604;2023-07-29T07:06:46;101904.10;;;18.08;28.41
77778;BME280;66966;-34.746;138.604;2023-07-29T07:09:11;101906.14;;;18.15;28.66
77778;BME280;66966;-34.746;138.604;2023-07-29T07:11:37;101907.18;;;18.19;29.20
77778;BME280;66966;-34.746;138.604;2023-07-29T07:14:03;101914.38;;;17.87;29.23
77778;BME280;66966;-34.746;138.604;2023-07-29T07:16:28;101920.36;;;18.03;29.05
77778;BME280;66966;-34.746;138.604;2023-07-29T07:18:53;101918.30;;;17.95;29.29
77778;BME280;66966;-34.746;138.604;2023-07-29T07:21:19;101918.18;;;17.79;29.54
77778;BME280;66966;-34.746;138.604;2023-07-29T07:23:44;101918.21;;;18.01;29.68
77778;BME280;66966;-34.746;138.604;2023-07-29T07:26:10;101918.54;;;17.84;29.71
77778;BME280;66966;-34.746;138.604;2023-07-29T07:28:35;101921.28;;;17.80;29.61
77778;BME280;66966;-34.746;138.604;2023-07-29T07:31:01;101914.39;;;17.83;29.81
77778;BME280;66966;-34.746;138.604;2023-07-29T07:33:27;101907.16;;;18.01;29.86
77778;BME280;66966;-34.746;138.604;2023-07-29T07:35:52;101909.02;;;17.97;30.04
77778;BME280;66966;-34.746;138.604;2023-07-29T07:38:18;101911.12;;;18.05;30.13
77778;BME280;66966;-34.746;138.604;2023-07-29T07:40:46;101910.26;;;18.10;30.15
77778;BME280;66966;-34.746;138.604;2023-07-29T07:43:09;101913.28;;;18.11;30.24
77778;BME280;66966;-34.746;138.604;2023-07-29T07:45:34;101911.33;;;17.87;30.35
77778;BME280;66966;-34.746;138.604;2023-07-29T07:48:00;101912.49;;;18.04;30.30
77778;BME280;66966;-34.746;138.604;2023-07-29T07:50:26;101912.54;;;18.04;30.38
77778;BME280;66966;-34.746;138.604;2023-07-29T07:52:51;101913.81;;;18.05;30.33
77778;BME280;66966;-34.746;138.604;2023-07-29T07:55:16;101921.98;;;18.00;30.37
77778;BME280;66966;-34.746;138.604;2023-07-29T07:57:42;101921.44;;;17.96;30.34
77778;BME280;66966;-34.746;138.604;2023-07-29T08:00:08;101922.04;;;17.89;30.61
77778;BME280;66966;-34.746;138.604;2023-07-29T08:02:33;101922.41;;;17.78;31.24
77778;BME280;66966;-34.746;138.604;2023-07-29T08:04:59;101923.80;;;17.09;31.48
77778;BME280;66966;-34.746;138.604;2023-07-29T08:07:24;101925.90;;;17.46;31.69
77778;BME280;66966;-34.746;138.604;2023-07-29T08:09:49;101926.55;;;17.22;32.16
77778;BME280;66966;-34.746;138.604;2023-07-29T08:12:15;101926.44;;;17.01;32.45
77778;BME280;66966;-34.746;138.604;2023-07-29T08:14:42;101928.73;;;16.83;32.71
77778;BME280;66966;-34.746;138.604;2023-07-29T08:17:06;101925.64;;;16.93;32.90
77778;BME280;66966;-34.746;138.604;2023-07-29T08:19:32;101929.05;;;16.78;33.23
77778;BME280;66966;-34.746;138.604;2023-07-29T08:21:57;101929.38;;;16.67;33.38
77778;BME280;66966;-34.746;138.604;2023-07-29T08:24:23;101929.71;;;16.74;33.53
77778;BME280;66966;-34.746;138.604;2023-07-29T08:26:49;101933.62;;;16.62;33.61
77778;BME280;66966;-34.746;138.604;2023-07-29T08:29:14;101936.34;;;16.51;33.76
77778;BME280;66966;-34.746;138.604;2023-07-29T08:31:40;101937.97;;;16.19;33.87
77778;BME280;66966;-34.746;138.604;2023-07-29T08:34:05;101933.52;;;16.36;33.98
77778;BME280;66966;-34.746;138.604;2023-07-29T08:36:29;101935.62;;;15.70;34.22
77778;BME280;66966;-34.746;138.604;2023-07-29T08:38:55;101937.89;;;16.13;34.45
77778;BME280;66966;-34.746;138.604;2023-07-29T08:41:25;101936.14;;;16.04;34.55
77778;BME280;66966;-34.746;138.604;2023-07-29T08:43:50;101938.61;;;15.93;34.61
77778;BME280;66966;-34.746;138.604;2023-07-29T08:46:10;101938.45;;;16.24;34.70
77778;BME280;66966;-34.746;138.604;2023-07-29T08:48:41;101942.38;;;16.10;34.84
77778;BME280;66966;-34.746;138.604;2023-07-29T08:51:04;101947.70;;;15.74;35.04
77778;BME280;66966;-34.746;138.604;2023-07-29T08:53:28;101945.37;;;15.87;35.10
77778;BME280;66966;-34.746;138.604;2023-07-29T08:55:52;101943.66;;;15.30;35.26
77778;BME280;66966;-34.746;138.604;2023-07-29T08:58:18;101943.96;;;15.70;35.36
77778;BME280;66966;-34.746;138.604;2023-07-29T09:00:43;101943.38;;;15.63;35.49
77778;BME280;66966;-34.746;138.604;2023-07-29T09:03:09;101943.32;;;15.55;35.65
77778;BME280;66966;-34.746;138.604;2023-07-29T09:05:35;101946.13;;;15.47;35.78
77778;BME280;66966;-34.746;138.604;2023-07-29T09:07:59;101949.50;;;15.39;35.72
77778;BME280;66966;-34.746;138.604;2023-07-29T09:10:26;101955.61;;;15.30;35.76
77778;BME280;66966;-34.746;138.604;2023-07-29T09:12:50;101955.46;;;15.26;35.88
77778;BME280;66966;-34.746;138.604;2023-07-29T09:15:27;101951.71;;;15.20;35.93
77778;BME280;66966;-34.746;138.604;2023-07-29T09:17:42;101950.90;;;15.09;36.01
77778;BME280;66966;-34.746;138.604;2023-07-29T09:20:07;101954.69;;;15.24;36.12
77778;BME280;66966;-34.746;138.604;2023-07-29T09:22:31;101955.90;;;14.90;36.24
77778;BME280;66966;-34.746;138.604;2023-07-29T09:24:58;101957.96;;;15.09;36.32
77778;BME280;66966;-34.746;138.604;2023-07-29T09:27:27;101958.71;;;14.80;36.32
77778;BME280;66966;-34.746;138.604;2023-07-29T09:29:48;101957.79;;;14.75;36.33
77778;BME280;66966;-34.746;138.604;2023-07-29T09:32:21;101957.51;;;14.72;36.35
77778;BME280;66966;-34.746;138.604;2023-07-29T09:34:42;101962.39;;;14.72;36.23
77778;BME280;66966;-34.746;138.604;2023-07-29T09:37:04;101962.76;;;14.86;36.26
77778;BME280;66966;-34.746;138.604;2023-07-29T09:39:30;101965.03;;;14.53;36.36
77778;BME280;66966;-34.746;138.604;2023-07-29T09:41:55;101967.65;;;14.67;36.44
77778;BME280;66966;-34.746;138.604;2023-07-29T09:44:20;101968.69;;;14.58;36.51
77778;BME280;66966;-34.746;138.604;2023-07-29T09:46:47;101969.86;;;14.56;36.46
77778;BME280;66966;-34.746;138.604;2023-07-29T09:49:11;101969.60;;;14.44;36.48
77778;BME280;66966;-34.746;138.604;2023-07-29T09:51:39;101968.64;;;14.36;36.49
77778;BME280;66966;-34.746;138.604;2023-07-29T09:54:03;101966.09;;;14.46;36.62
77778;BME280;66966;-34.746;138.604;2023-07-29T09:56:28;101967.21;;;14.12;36.71
77778;BME280;66966;-34.746;138.604;2023-07-29T09:58:55;101969.33;;;14.24;36.79
77778;BME280;66966;-34.746;138.604;2023-07-29T10:01:19;101969.46;;;14.17;36.86
77778;BME280;66966;-34.746;138.604;2023-07-29T10:03:46;101966.97;;;14.04;37.02
77778;BME280;66966;-34.746;138.604;2023-07-29T10:06:10;101968.54;;;13.94;37.16
77778;BME280;66966;-34.746;138.604;2023-07-29T10:08:35;101971.40;;;14.20;37.12
77778;BME280;66966;-34.746;138.604;2023-07-29T10:11:01;101974.01;;;13.88;37.10
77778;BME280;66966;-34.746;138.604;2023-07-29T10:13:27;101971.01;;;14.01;37.16
77778;BME280;66966;-34.746;138.604;2023-07-29T10:15:54;101973.17;;;13.71;37.22
77778;BME280;66966;-34.746;138.604;2023-07-29T10:18:19;101974.99;;;13.53;36.94
77778;BME280;66966;-34.746;138.604;2023-07-29T10:20:44;101979.08;;;14.16;36.64
77778;BME280;66966;-34.746;138.604;2023-07-29T10:23:09;101976.34;;;13.95;36.83
77778;BME280;66966;-34.746;138.604;2023-07-29T10:25:39;101981.82;;;14.06;36.93
77778;BME280;66966;-34.746;138.604;2023-07-29T10:28:05;101985.55;;;13.69;37.09
77778;BME280;66966;-34.746;138.604;2023-07-29T10:30:25;101987.85;;;13.62;37.08
77778;BME280;66966;-34.746;138.604;2023-07-29T10:32:51;101990.13;;;13.74;37.26
77778;BME280;66966;-34.746;138.604;2023-07-29T10:35:16;101996.21;;;13.94;37.27
77778;BME280;66966;-34.746;138.604;2023-07-29T10:37:41;101998.23;;;13.40;37.37
77778;BME280;66966;-34.746;138.604;2023-07-29T10:40:09;101997.96;;;13.62;37.36
77778;BME280;66966;-34.746;138.604;2023-07-29T10:42:32;102003.51;;;13.37;37.36
77778;BME280;66966;-34.746;138.604;2023-07-29T10:44:57;102005.16;;;13.33;37.35
77778;BME280;66966;-34.746;138.604;2023-07-29T10:47:24;102004.71;;;13.27;37.38
77778;BME280;66966;-34.746;138.604;2023-07-29T10:49:50;102005.81;;;13.43;37.47
77778;BME280;66966;-34.746;138.604;2023-07-29T10:52:15;102005.61;;;13.41;37.48
77778;BME280;66966;-34.746;138.604;2023-07-29T10:54:44;102007.40;;;13.38;37.53
77778;BME280;66966;-34.746;138.604;2023-07-29T10:57:05;102009.39;;;13.64;37.50
77778;BME280;66966;-34.746;138.604;2023-07-29T10:59:33;102009.18;;;13.38;37.52
77778;BME280;66966;-34.746;138.604;2023-07-29T11:01:59;102010.35;;;13.35;37.41
77778;BME280;66966;-34.746;138.604;2023-07-29T11:04:26;102010.14;;;13.21;37.47
77778;BME280;66966;-34.746;138.604;2023-07-29T11:11:40;102007.90;;;13.22;37.78
77778;BME280;66966;-34.746;138.604;2023-07-29T11:14:04;102003.98;;;13.19;37.80
77778;BME280;66966;-34.746;138.604;2023-07-29T11:16:31;102003.99;;;13.14;37.81
77778;BME280;66966;-34.746;138.604;2023-07-29T11:18:55;101998.87;;;13.05;37.84
77778;BME280;66966;-34.746;138.604;2023-07-29T11:21:20;102002.39;;;13.04;37.78
77778;BME280;66966;-34.746;138.604;2023-07-29T11:23:46;102003.47;;;12.99;37.84
77778;BME280;66966;-34.746;138.604;2023-07-29T11:26:11;102005.91;;;12.88;37.93
77778;BME280;66966;-34.746;138.604;2023-07-29T11:28:40;102012.71;;;12.81;38.02
77778;BME280;66966;-34.746;138.604;2023-07-29T11:31:03;102014.08;;;12.75;38.17
77778;BME280;66966;-34.746;138.604;2023-07-29T11:33:29;102019.18;;;12.71;38.36
77778;BME280;66966;-34.746;138.604;2023-07-29T11:35:54;102021.77;;;12.67;38.27
77778;BME280;66966;-34.746;138.604;2023-07-29T11:38:21;102017.90;;;12.66;38.23
77778;BME280;66966;-34.746;138.604;2023-07-29T11:40:55;102015.75;;;12.64;38.22
77778;BME280;66966;-34.746;138.604;2023-07-29T11:43:17;102016.92;;;12.60;38.24
77778;BME280;66966;-34.746;138.604;2023-07-29T11:45:37;102015.92;;;12.74;38.26
77778;BME280;66966;-34.746;138.604;2023-07-29T11:48:02;102021.72;;;12.50;38.25
77778;BME280;66966;-34.746;138.604;2023-07-29T11:50:28;102022.37;;;12.47;38.23
77778;BME280;66966;-34.746;138.604;2023-07-29T11:52:53;102026.23;;;12.63;38.29
77778;BME280;66966;-34.746;138.604;2023-07-29T11:55:19;102026.36;;;12.30;38.29
77778;BME280;66966;-34.746;138.604;2023-07-29T11:57:44;102023.28;;;12.26;38.37
77778;BME280;66966;-34.746;138.604;2023-07-29T12:00:11;102022.58;;;12.48;38.38
77778;BME280;66966;-34.746;138.604;2023-07-29T12:02:37;102024.27;;;12.17;38.43
77778;BME280;66966;-34.746;138.604;2023-07-29T12:05:01;102021.31;;;12.58;38.47
77778;BME280;66966;-34.746;138.604;2023-07-29T12:07:27;102020.82;;;12.29;38.53
77778;BME280;66966;-34.746;138.604;2023-07-29T12:09:53;102021.51;;;12.24;38.57
77778;BME280;66966;-34.746;138.604;2023-07-29T12:12:17;102018.86;;;12.46;38.61
77778;BME280;66966;-34.746;138.604;2023-07-29T12:14:45;102021.81;;;12.44;38.57
77778;BME280;66966;-34.746;138.604;2023-07-29T12:17:10;102020.24;;;12.24;38.53